Time;durP1;ratioP1;P1;durP2;ratioP2;P2;SDS_P1;SDS_P2;PMS_P1;PMS_P2;Temp;Humidity;BMP_temperature;BMP_pressure;BME280_temperature;BME280_humidity;BME280_pressure;Samples;Min_cycle;Max_cycle;Signal;HPM_P1;HPM_P2
2023/04/08 00:14:27;;;;;;;17.30;8.90;;;;;;;5.09;78.07;100341.91;30744179;28;97435;-65
2023/04/08 00:29:28;;;;;;;19.98;11.10;;;;;;;5.02;77.63;100353.97;30742975;28;96822;-63
2023/04/08 00:44:28;;;;;;;20.70;11.50;;;;;;;4.97;77.86;100349.03;30741585;28;97347;-63
2023/04/08 00:59:29;;;;;;;17.50;10.90;;;;;;;5.06;78.39;100372.03;30739484;28;96732;-63
2023/04/08 01:14:33;;;;;;;17.15;10.50;;;;;;;5.17;78.44;100381.69;30738483;28;96645;-64
2023/04/08 01:29:34;;;;;;;20.50;11.60;;;;;;;5.24;78.84;100387.28;30736606;28;96681;-64
2023/04/08 01:44:36;;;;;;;20.33;10.75;;;;;;;5.17;78.63;100388.78;30735478;28;96684;-63
2023/04/08 01:59:39;;;;;;;21.80;12.55;;;;;;;4.80;78.37;100410.34;30733878;28;96634;-64
2023/04/08 02:14:39;;;;;;;19.63;11.75;;;;;;;4.52;78.18;100428.44;30732998;28;97295;-63
2023/04/08 02:29:41;;;;;;;16.33;9.00;;;;;;;4.43;78.45;100450.31;30731745;28;96601;-63
2023/04/08 02:44:41;;;;;;;19.25;10.57;;;;;;;4.36;78.44;100453.44;30736149;28;96774;-63
2023/04/08 02:59:41;;;;;;;16.20;9.63;;;;;;;4.34;78.04;100468.53;30749999;28;106072;-63
2023/04/08 03:14:42;;;;;;;17.63;9.65;;;;;;;4.29;78.12;100481.28;30748359;28;97113;-63
2023/04/08 03:29:44;;;;;;;14.43;8.60;;;;;;;4.14;77.73;100493.03;30746985;28;96652;-63
2023/04/08 03:44:44;;;;;;;12.32;8.25;;;;;;;4.05;78.22;100505.16;30745117;28;97300;-64
2023/04/08 03:59:45;;;;;;;13.00;7.97;;;;;;;3.96;77.74;100514.59;30745170;28;97407;-64
2023/04/08 04:14:45;;;;;;;14.80;9.18;;;;;;;3.95;77.36;100533.16;30744517;28;96682;-64
2023/04/08 04:29:45;;;;;;;14.02;9.02;;;;;;;3.97;77.55;100558.47;30743653;28;109479;-65
2023/04/08 04:44:46;;;;;;;15.52;10.15;;;;;;;4.03;77.54;100580.88;30740738;28;96546;-64
2023/04/08 04:59:46;;;;;;;16.85;9.63;;;;;;;4.10;77.35;100599.69;30739015;28;97585;-64
2023/04/08 05:14:47;;;;;;;13.55;9.32;;;;;;;4.14;76.91;100620.44;30738585;28;103156;-64
2023/04/08 05:29:47;;;;;;;15.48;9.25;;;;;;;4.15;76.97;100637.94;30738018;28;101417;-64
2023/04/08 05:44:47;;;;;;;13.38;8.68;;;;;;;4.18;76.35;100643.00;30736186;28;101367;-63
2023/04/08 05:59:48;;;;;;;12.95;8.88;;;;;;;4.22;76.21;100662.91;30734874;28;99510;-63
2023/04/08 06:14:54;;;;;;;15.90;9.27;;;;;;;4.29;75.28;100680.88;30733106;28;96695;-63
2023/04/08 06:29:54;;;;;;;16.73;9.85;;;;;;;4.52;74.93;100698.41;30731046;28;96768;-64
2023/04/08 06:44:55;;;;;;;15.77;9.77;;;;;;;5.06;74.42;100720.63;30729766;28;105533;-63
2023/04/08 06:59:56;;;;;;;15.27;10.05;;;;;;;5.51;72.99;100725.00;30728549;28;96893;-65
2023/04/08 07:14:56;;;;;;;15.93;9.32;;;;;;;5.74;71.69;100738.97;30728862;28;96968;-65
2023/04/08 07:29:56;;;;;;;14.07;9.15;;;;;;;6.14;71.19;100760.47;30732989;28;96871;-65
2023/04/08 07:44:57;;;;;;;11.40;7.50;;;;;;;6.51;69.15;100775.94;30748346;28;98431;-64
2023/04/08 07:59:57;;;;;;;14.98;9.88;;;;;;;6.29;68.19;100798.91;30744886;28;110468;-65
2023/04/08 08:14:58;;;;;;;14.23;8.85;;;;;;;6.85;67.80;100797.75;30743413;28;96650;-64
2023/04/08 08:29:58;;;;;;;13.73;8.55;;;;;;;7.28;66.99;100804.63;30743393;28;96635;-65
2023/04/08 08:45:02;;;;;;;11.38;8.68;;;;;;;7.48;66.10;100810.00;30739938;28;110599;-65
2023/04/08 09:00:02;;;;;;;12.30;7.67;;;;;;;8.00;65.65;100825.75;30740691;28;96717;-65
2023/04/08 09:15:08;;;;;;;11.50;7.68;;;;;;;8.14;63.83;100846.56;30739401;28;97574;-65
2023/04/08 09:30:15;;;;;;;14.13;8.20;;;;;;;8.21;62.80;100860.13;30736579;28;98270;-65
2023/04/08 09:45:16;;;;;;;10.10;7.03;;;;;;;8.73;62.09;100865.16;30735755;28;96651;-64
2023/04/08 10:00:17;;;;;;;11.30;7.53;;;;;;;9.63;60.44;100878.06;30733949;28;97913;-64
2023/04/08 10:15:31;;;;;;;11.70;7.20;;;;;;;9.13;59.24;100881.88;30732736;28;96796;-63
2023/04/08 10:30:32;;;;;;;12.10;7.50;;;;;;;8.94;59.00;100894.25;30732181;28;96802;-63
2023/04/08 10:45:33;;;;;;;12.10;6.97;;;;;;;10.40;57.82;100889.28;30730012;28;97135;-64
2023/04/08 11:00:35;;;;;;;12.30;7.93;;;;;;;10.54;55.67;100887.03;30728876;28;96825;-63
2023/04/08 11:15:37;;;;;;;12.20;8.70;;;;;;;12.77;53.85;100891.56;30747738;28;97026;-64
2023/04/08 11:30:39;;;;;;;15.73;9.47;;;;;;;14.67;51.07;100889.00;30749417;28;96881;-64
2023/04/08 11:45:40;;;;;;;10.53;7.70;;;;;;;26.73;36.64;100888.91;30747974;28;97675;-64
2023/04/08 12:00:41;;;;;;;9.83;7.80;;;;;;;22.81;32.07;100895.31;30746151;28;96784;-65
2023/04/08 12:15:42;;;;;;;11.30;7.90;;;;;;;23.62;28.52;100884.66;30743643;28;96713;-65
2023/04/08 12:30:42;;;;;;;9.80;7.97;;;;;;;19.23;32.68;100888.91;30744049;28;98647;-65
2023/04/08 12:45:43;;;;;;;8.30;6.60;;;;;;;18.19;33.38;100876.78;30741828;28;105498;-65
2023/04/08 13:00:45;;;;;;;8.60;6.53;;;;;;;17.46;34.63;100872.75;30740536;28;96758;-65
2023/04/08 13:15:46;;;;;;;8.13;6.50;;;;;;;18.67;32.64;100862.31;30739682;28;96969;-65
2023/04/08 13:30:46;;;;;;;9.40;7.00;;;;;;;17.68;33.60;100853.78;30737335;28;97047;-65
2023/04/08 13:45:46;;;;;;;7.35;5.95;;;;;;;17.66;33.89;100856.69;30735462;28;110290;-65
2023/04/08 14:00:47;;;;;;;9.98;7.10;;;;;;;16.84;34.68;100858.22;30735695;28;97179;-65
2023/04/08 14:15:48;;;;;;;11.45;6.90;;;;;;;17.16;35.03;100854.13;30734464;28;105426;-65
2023/04/08 14:30:48;;;;;;;9.03;6.93;;;;;;;16.60;35.34;100859.50;30733224;28;97539;-65
2023/04/08 14:45:50;;;;;;;8.82;7.00;;;;;;;16.11;35.97;100864.59;30731081;28;109293;-65
2023/04/08 15:00:50;;;;;;;11.87;7.73;;;;;;;15.43;37.04;100859.41;30730037;28;97076;-64
2023/04/08 15:15:51;;;;;;;11.23;7.05;;;;;;;14.80;38.16;100856.22;30727935;28;96758;-64
2023/04/08 15:30:51;;;;;;;13.45;8.13;;;;;;;13.95;39.42;100861.47;30729048;28;97453;-64
2023/04/08 15:45:51;;;;;;;13.07;9.15;;;;;;;12.73;41.79;100875.03;30726673;28;96690;-64
2023/04/08 16:00:54;;;;;;;12.60;9.10;;;;;;;12.27;43.14;100863.97;30743929;28;109566;-64
2023/04/08 16:15:55;;;;;;;12.60;8.67;;;;;;;12.01;44.18;100879.13;30743935;28;97112;-64
2023/04/08 16:30:55;;;;;;;10.90;7.47;;;;;;;11.68;44.75;100880.78;30744182;28;96687;-66
2023/04/08 16:45:56;;;;;;;13.48;9.50;;;;;;;11.22;45.65;100896.22;30740669;28;101115;-63
2023/04/08 17:00:56;;;;;;;13.82;9.60;;;;;;;10.89;46.22;100912.81;30739915;28;97283;-63
2023/04/08 17:15:56;;;;;;;14.27;9.25;;;;;;;10.50;48.42;100918.50;30740406;28;96760;-64
2023/04/08 17:30:57;;;;;;;14.02;9.68;;;;;;;10.28;49.02;100927.75;30738155;28;97402;-64
2023/04/08 17:45:59;;;;;;;14.15;9.93;;;;;;;10.04;49.22;100933.63;30735308;28;112814;-64
2023/04/08 18:01:00;;;;;;;15.10;10.23;;;;;;;9.76;50.28;100938.91;30735123;28;96788;-63
2023/04/08 18:16:00;;;;;;;15.98;10.82;;;;;;;9.54;51.20;100961.41;30732489;28;96757;-64
2023/04/08 18:31:01;;;;;;;17.92;11.23;;;;;;;9.35;51.99;100976.44;30732212;28;96710;-64
2023/04/08 18:46:01;;;;;;;24.90;12.10;;;;;;;9.22;53.08;100981.22;30729154;28;96762;-63
2023/04/08 19:01:05;;;;;;;18.63;12.77;;;;;;;9.08;53.40;100985.97;30729556;28;97489;-64
2023/04/08 19:16:06;;;;;;;21.97;13.37;;;;;;;9.00;54.08;100987.69;30727922;28;97009;-64
2023/04/08 19:31:15;;;;;;;24.27;13.88;;;;;;;8.87;55.12;100985.28;30740374;28;97041;-63
2023/04/08 19:46:15;;;;;;;26.53;15.87;;;;;;;8.83;55.50;100986.53;30747992;28;97436;-63
2023/04/08 20:01:16;;;;;;;27.90;16.13;;;;;;;8.76;56.09;100989.75;30745680;28;97497;-63
2023/04/08 20:16:16;;;;;;;28.65;16.13;;;;;;;8.71;56.99;100983.19;30743535;28;96677;-64
2023/04/08 20:31:18;;;;;;;29.88;16.05;;;;;;;8.60;57.45;100973.53;30743487;28;97317;-63
2023/04/08 20:46:18;;;;;;;30.43;18.17;;;;;;;8.51;58.06;100992.94;30742458;28;96898;-63
2023/04/08 21:01:19;;;;;;;26.70;16.52;;;;;;;8.43;58.43;100996.25;30742056;28;98104;-63
2023/04/08 21:16:19;;;;;;;30.98;18.90;;;;;;;8.38;58.84;100999.31;30738750;28;97234;-63
2023/04/08 21:31:20;;;;;;;29.88;18.58;;;;;;;8.32;59.58;100999.03;30740307;28;96648;-63
2023/04/08 21:46:20;;;;;;;36.33;18.88;;;;;;;8.25;59.43;100990.75;30737788;28;96653;-63
2023/04/08 22:01:20;;;;;;;29.67;17.02;;;;;;;8.19;59.53;100983.31;30737859;28;96788;-64
2023/04/08 22:16:21;;;;;;;27.05;17.40;;;;;;;8.07;59.80;100975.47;30736689;28;97035;-64
2023/04/08 22:31:21;;;;;;;29.83;15.95;;;;;;;8.01;60.27;100969.84;30735121;28;97319;-64
2023/04/08 22:46:22;;;;;;;27.65;17.23;;;;;;;7.94;60.52;100966.91;30734383;28;96645;-63
2023/04/08 23:01:22;;;;;;;27.10;16.30;;;;;;;7.93;60.50;100978.50;30738265;28;96564;-64
2023/04/08 23:16:22;;;;;;;27.83;16.40;;;;;;;7.85;60.48;100979.16;30751121;28;96572;-64
2023/04/08 23:31:23;;;;;;;29.00;17.02;;;;;;;7.75;61.42;100971.16;30752216;28;96768;-64
2023/04/08 23:46:23;;;;;;;30.08;17.00;;;;;;;7.71;61.52;100947.66;30750498;28;96714;-65
